Time;durP1;ratioP1;P1;durP2;ratioP2;P2;SDS_P1;SDS_P2;PMS_P1;PMS_P2;Temp;Humidity;BMP_temperature;BMP_pressure;BME280_temperature;BME280_humidity;BME280_pressure;Samples;Min_cycle;Max_cycle;Signal;HPM_P1;HPM_P2
2022/10/31 00:00:56;;;;;;;6.55;2.40;;;;;;;;;;2106894;28;20051;-42
2022/10/31 00:01:57;;;;;;;4.82;1.83;;;;;;;;;;2106603;28;20576;-42
2022/10/31 00:02:59;;;;;;;4.05;1.88;;;;;;;;;;2106001;28;20056;-42
2022/10/31 00:04:01;;;;;;;5.22;1.60;;;;;;;;;;2106976;28;20070;-44
2022/10/31 00:05:02;;;;;;;7.00;1.98;;;;;;;;;;2106984;28;20052;-44
2022/10/31 00:06:03;;;;;;;7.55;2.03;;;;;;;;;;2108811;28;20051;-45
2022/10/31 00:07:04;;;;;;;3.93;1.90;;;;;;;;;;2115208;28;20051;-45
2022/10/31 00:08:05;;;;;;;4.93;2.35;;;;;;;;;;2115263;28;20051;-45
2022/10/31 00:09:06;;;;;;;4.37;1.60;;;;;;;;;;2115293;28;20077;-45
2022/10/31 00:10:08;;;;;;;6.88;1.98;;;;;;;;;;2115287;28;20056;-44
2022/10/31 00:11:09;;;;;;;4.57;2.13;;;;;;;;;;2115327;28;20048;-44
2022/10/31 00:12:10;;;;;;;7.57;2.25;;;;;;;;;;2115197;28;20581;-45
2022/10/31 00:13:11;;;;;;;10.93;2.75;;;;;;;;;;2115255;28;20056;-44
2022/10/31 00:14:12;;;;;;;;;;;;;;;;;;2115716;28;20058;-44
2022/10/31 00:15:14;;;;;;;7.72;1.88;;;;;;;;;;2115123;28;20368;-45
2022/10/31 00:16:15;;;;;;;5.75;1.83;;;;;;;;;;2115256;28;20043;-44
2022/10/31 00:17:16;;;;;;;4.25;1.77;;;;;;;;;;2115224;28;20054;-45
2022/10/31 00:18:17;;;;;;;6.85;2.20;;;;;;;;;;2115329;28;20101;-44
2022/10/31 00:19:19;;;;;;;3.00;1.80;;;;;;;;;;2115136;28;20100;-44
2022/10/31 00:20:19;;;;;;;4.90;1.90;;;;;;;;;;2115307;28;20070;-45
2022/10/31 00:21:21;;;;;;;5.70;1.97;;;;;;;;;;2115246;28;20504;-44
2022/10/31 00:22:22;;;;;;;7.38;2.35;;;;;;;;;;2115226;28;20058;-44
2022/10/31 00:23:23;;;;;;;5.68;2.20;;;;;;;;;;2115247;28;20082;-44
2022/10/31 00:24:24;;;;;;;7.60;2.30;;;;;;;;;;2115284;28;20050;-45
2022/10/31 00:25:25;;;;;;;6.95;1.88;;;;;;;;;;2115265;28;20055;-45
2022/10/31 00:26:27;;;;;;;4.97;1.80;;;;;;;;;;2115090;28;20048;-45
2022/10/31 00:27:28;;;;;;;5.40;2.25;;;;;;;;;;2115255;28;20047;-44
2022/10/31 00:28:30;;;;;;;3.23;1.87;;;;;;;;;;2115151;28;20051;-45
2022/10/31 00:29:31;;;;;;;5.95;2.22;;;;;;;;;;2114854;28;20051;-45
2022/10/31 00:30:32;;;;;;;8.30;2.13;;;;;;;;;;2115070;28;20050;-44
2022/10/31 00:31:33;;;;;;;5.20;1.92;;;;;;;;;;2115124;28;20052;-46
2022/10/31 00:32:34;;;;;;;4.75;2.20;;;;;;;;;;2115135;28;20183;-44
2022/10/31 00:33:37;;;;;;;3.17;1.77;;;;;;;;;;2115212;28;20044;-44
2022/10/31 00:34:39;;;;;;;4.20;2.17;;;;;;;;;;2115121;28;20043;-44
2022/10/31 00:35:39;;;;;;;7.50;2.08;;;;;;;;;;2115188;28;20035;-45
2022/10/31 00:36:41;;;;;;;3.90;2.00;;;;;;;;;;2107005;28;20051;-45
2022/10/31 00:37:41;;;;;;;4.88;2.70;;;;;;;;;;2106548;28;20044;-44
2022/10/31 00:38:43;;;;;;;6.90;1.90;;;;;;;;;;2106593;28;20055;-44
2022/10/31 00:39:45;;;;;;;5.60;1.77;;;;;;;;;;2106569;28;20044;-45
2022/10/31 00:40:46;;;;;;;4.63;1.95;;;;;;;;;;2106708;28;20082;-44
2022/10/31 00:41:46;;;;;;;8.15;2.33;;;;;;;;;;2106591;28;20055;-44
2022/10/31 00:42:48;;;;;;;6.60;2.63;;;;;;;;;;2106776;28;20485;-45
2022/10/31 00:43:48;;;;;;;6.95;2.47;;;;;;;;;;2106766;28;20051;-42
2022/10/31 00:44:50;;;;;;;4.10;2.00;;;;;;;;;;2106720;28;20047;-42
2022/10/31 00:45:50;;;;;;;4.43;1.75;;;;;;;;;;2106575;28;20523;-42
2022/10/31 00:46:51;;;;;;;4.53;1.90;;;;;;;;;;2106544;28;20035;-42
2022/10/31 00:47:52;;;;;;;7.65;2.17;;;;;;;;;;2106587;28;20051;-42
2022/10/31 00:48:53;;;;;;;7.73;2.20;;;;;;;;;;2106505;28;20047;-42
2022/10/31 00:49:55;;;;;;;6.57;2.22;;;;;;;;;;2106707;28;20078;-42
2022/10/31 00:50:56;;;;;;;5.20;2.17;;;;;;;;;;2106501;28;20090;-42
2022/10/31 00:51:57;;;;;;;7.70;2.17;;;;;;;;;;2106741;28;20052;-42
2022/10/31 00:52:58;;;;;;;5.90;2.07;;;;;;;;;;2106517;28;20055;-42
2022/10/31 00:53:59;;;;;;;7.80;1.88;;;;;;;;;;2106660;28;20048;-42
2022/10/31 00:55:00;;;;;;;6.40;1.90;;;;;;;;;;2106803;28;20586;-42
2022/10/31 00:56:01;;;;;;;4.70;2.10;;;;;;;;;;2106595;28;20052;-42
2022/10/31 00:57:03;;;;;;;4.35;2.28;;;;;;;;;;2106561;28;20044;-42
2022/10/31 00:58:03;;;;;;;5.82;1.92;;;;;;;;;;2106625;28;20051;-42
2022/10/31 00:59:05;;;;;;;7.10;2.25;;;;;;;;;;2106627;28;20629;-42
2022/10/31 01:00:07;;;;;;;4.28;1.83;;;;;;;;;;2106721;28;20052;-42
2022/10/31 01:01:08;;;;;;;6.43;2.00;;;;;;;;;;2106436;28;20052;-42
2022/10/31 01:02:09;;;;;;;7.03;2.15;;;;;;;;;;2111338;28;20528;-42
2022/10/31 01:03:10;;;;;;;8.10;2.40;;;;;;;;;;2106592;28;20173;-42
2022/10/31 01:04:11;;;;;;;6.57;2.03;;;;;;;;;;2106477;28;20105;-42
2022/10/31 01:05:13;;;;;;;7.72;2.10;;;;;;;;;;2106487;28;20481;-42
2022/10/31 01:06:15;;;;;;;5.50;2.20;;;;;;;;;;2106434;28;20055;-42
2022/10/31 01:07:16;;;;;;;;;;;;;;;;;;2106963;28;20105;-42
2022/10/31 01:08:17;;;;;;;5.05;2.42;;;;;;;;;;2106748;28;20330;-46
2022/10/31 01:09:18;;;;;;;7.93;2.27;;;;;;;;;;2106545;28;20382;-44
2022/10/31 01:10:19;;;;;;;9.50;2.35;;;;;;;;;;2106543;28;20044;-45
2022/10/31 01:11:22;;;;;;;4.43;1.98;;;;;;;;;;2106393;28;20067;-46
2022/10/31 01:12:22;;;;;;;9.18;2.17;;;;;;;;;;2106500;28;20048;-44
2022/10/31 01:13:24;;;;;;;3.70;2.00;;;;;;;;;;2111427;28;20036;-42
2022/10/31 01:14:24;;;;;;;9.82;2.63;;;;;;;;;;2114674;28;20040;-42
2022/10/31 01:15:26;;;;;;;8.32;2.53;;;;;;;;;;2115061;28;20094;-42
2022/10/31 01:16:27;;;;;;;4.35;2.50;;;;;;;;;;2114719;28;20435;-42
2022/10/31 01:17:28;;;;;;;7.07;2.50;;;;;;;;;;2114776;28;20465;-42
2022/10/31 01:18:29;;;;;;;7.80;1.73;;;;;;;;;;2115040;28;20481;-42
2022/10/31 01:19:31;;;;;;;5.72;2.22;;;;;;;;;;2114508;28;20081;-44
2022/10/31 01:20:33;;;;;;;5.90;1.90;;;;;;;;;;2114744;28;20047;-44
2022/10/31 01:21:34;;;;;;;6.65;2.25;;;;;;;;;;2114864;28;20043;-44
2022/10/31 01:22:35;;;;;;;4.63;1.83;;;;;;;;;;2114640;28;20476;-45
2022/10/31 01:23:36;;;;;;;6.80;2.30;;;;;;;;;;2114932;28;20131;-46
2022/10/31 01:24:37;;;;;;;3.60;1.88;;;;;;;;;;2114801;28;20036;-45
2022/10/31 01:25:38;;;;;;;4.17;2.20;;;;;;;;;;2114751;28;20052;-44
2022/10/31 01:26:39;;;;;;;7.72;2.05;;;;;;;;;;2114631;28;20480;-45
2022/10/31 01:27:58;;;;;;;3.85;2.10;;;;;;;;;;2114800;28;20310;-44
2022/10/31 01:29:00;;;;;;;7.55;2.42;;;;;;;;;;2114827;28;20131;-45
2022/10/31 01:30:02;;;;;;;5.40;2.08;;;;;;;;;;2114689;28;20051;-45
2022/10/31 01:31:04;;;;;;;6.55;1.98;;;;;;;;;;2114682;28;20102;-45
2022/10/31 01:32:05;;;;;;;3.95;2.00;;;;;;;;;;2114835;28;20050;-45
2022/10/31 01:33:06;;;;;;;7.75;2.28;;;;;;;;;;2114642;28;20043;-44
2022/10/31 01:34:07;;;;;;;3.85;1.98;;;;;;;;;;2114798;28;20078;-45
2022/10/31 01:35:08;;;;;;;6.72;2.13;;;;;;;;;;2114703;28;20055;-46
2022/10/31 01:36:18;;;;;;;5.13;2.33;;;;;;;;;;2111008;28;20042;-44
2022/10/31 01:37:18;;;;;;;4.97;2.25;;;;;;;;;;2106190;28;20400;-45
2022/10/31 01:38:20;;;;;;;4.13;2.20;;;;;;;;;;2106253;28;20047;-44
2022/10/31 01:39:21;;;;;;;6.82;2.42;;;;;;;;;;2106281;28;20102;-44
2022/10/31 01:40:22;;;;;;;5.30;2.30;;;;;;;;;;2106227;28;20054;-45
2022/10/31 01:41:24;;;;;;;7.97;2.33;;;;;;;;;;2106229;28;20405;-44
2022/10/31 01:42:24;;;;;;;4.47;2.30;;;;;;;;;;2106267;28;20048;-45
2022/10/31 01:43:41;;;;;;;5.97;2.05;;;;;;;;;;2106183;28;20052;-45
2022/10/31 01:44:50;;;;;;;5.43;2.00;;;;;;;;;;2106198;28;20048;-44
2022/10/31 01:45:54;;;;;;;4.13;2.17;;;;;;;;;;2106226;28;20484;-44
2022/10/31 01:46:58;;;;;;;7.40;2.78;;;;;;;;;;2106096;28;20060;-45
2022/10/31 01:47:59;;;;;;;8.13;2.50;;;;;;;;;;2106108;28;20052;-44
2022/10/31 01:49:02;;;;;;;5.15;1.90;;;;;;;;;;2106104;28;20079;-44
2022/10/31 01:50:05;;;;;;;4.18;1.95;;;;;;;;;;2106129;28;20493;-44
2022/10/31 01:51:06;;;;;;;4.03;2.03;;;;;;;;;;2106185;28;20050;-44
2022/10/31 01:52:12;;;;;;;3.78;1.90;;;;;;;;;;2106155;28;20044;-44
2022/10/31 01:53:15;;;;;;;6.75;2.25;;;;;;;;;;2106190;28;20386;-45
2022/10/31 01:54:18;;;;;;;4.75;1.98;;;;;;;;;;2106063;28;20044;-45
2022/10/31 01:55:22;;;;;;;6.85;2.38;;;;;;;;;;2105994;28;20047;-44
2022/10/31 01:56:28;;;;;;;4.45;2.05;;;;;;;;;;2106046;28;20044;-45
2022/10/31 01:57:31;;;;;;;6.30;2.17;;;;;;;;;;2106224;28;20066;-44
2022/10/31 01:58:32;;;;;;;4.50;1.98;;;;;;;;;;2107814;28;20390;-45
2022/10/31 01:59:35;;;;;;;8.60;2.03;;;;;;;;;;2114511;28;20055;-44
2022/10/31 02:00:36;;;;;;;7.30;2.10;;;;;;;;;;2114470;28;20076;-45
2022/10/31 02:01:38;;;;;;;5.18;2.03;;;;;;;;;;2114595;28;20508;-42
2022/10/31 02:02:39;;;;;;;4.75;2.70;;;;;;;;;;2114477;28;20678;-42
2022/10/31 02:03:40;;;;;;;4.32;1.80;;;;;;;;;;2114630;28;20051;-42
2022/10/31 02:04:41;;;;;;;7.00;2.03;;;;;;;;;;2114450;28;20485;-42
2022/10/31 02:05:43;;;;;;;4.72;2.35;;;;;;;;;;2114635;28;20112;-42
2022/10/31 02:06:45;;;;;;;6.40;2.13;;;;;;;;;;2114386;28;20089;-42
2022/10/31 02:07:51;;;;;;;5.90;2.47;;;;;;;;;;2114393;28;20040;-42
2022/10/31 02:08:52;;;;;;;7.07;2.22;;;;;;;;;;2114601;28;20093;-42
2022/10/31 02:09:54;;;;;;;3.92;2.10;;;;;;;;;;2114390;28;20043;-42
2022/10/31 02:10:55;;;;;;;7.78;1.92;;;;;;;;;;2114380;28;20416;-42
2022/10/31 02:11:58;;;;;;;9.07;2.15;;;;;;;;;;2114632;28;20120;-45
2022/10/31 02:12:58;;;;;;;;;;;;;;;;;;2114956;28;20051;-46
2022/10/31 02:14:00;;;;;;;6.60;2.08;;;;;;;;;;2114400;28;19977;-45
2022/10/31 02:15:01;;;;;;;7.97;2.47;;;;;;;;;;2114567;28;20044;-45
2022/10/31 02:16:03;;;;;;;8.30;2.42;;;;;;;;;;2114360;28;20511;-44
2022/10/31 02:17:04;;;;;;;3.65;2.13;;;;;;;;;;2114527;28;20043;-46
2022/10/31 02:18:05;;;;;;;5.80;2.43;;;;;;;;;;2114487;28;20475;-44
2022/10/31 02:19:08;;;;;;;4.20;2.00;;;;;;;;;;2114438;28;20047;-45
2022/10/31 02:20:14;;;;;;;6.13;2.50;;;;;;;;;;2114524;28;20054;-46
2022/10/31 02:21:17;;;;;;;3.75;2.30;;;;;;;;;;2114329;28;20047;-44
2022/10/31 02:22:21;;;;;;;4.63;2.30;;;;;;;;;;2114710;28;20047;-42
2022/10/31 02:23:41;;;;;;;4.47;2.22;;;;;;;;;;2114311;28;20488;-42
2022/10/31 02:24:56;;;;;;;4.22;2.70;;;;;;;;;;2114384;28;20127;-42
2022/10/31 02:26:08;;;;;;;4.40;2.33;;;;;;;;;;2113601;28;20044;-42
2022/10/31 02:27:17;;;;;;;6.30;2.40;;;;;;;;;;2114449;28;20047;-42
2022/10/31 02:28:37;;;;;;;8.75;2.45;;;;;;;;;;2114480;28;20044;-42
2022/10/31 02:29:52;;;;;;;6.13;2.53;;;;;;;;;;2114317;28;20055;-42
2022/10/31 02:31:00;;;;;;;4.20;2.55;;;;;;;;;;2114285;28;20120;-42
2022/10/31 02:32:06;;;;;;;7.07;2.53;;;;;;;;;;2114289;28;20043;-42
2022/10/31 02:33:11;;;;;;;5.03;2.40;;;;;;;;;;2114348;28;20492;-42
2022/10/31 02:34:17;;;;;;;7.07;2.40;;;;;;;;;;2114474;28;20051;-42
2022/10/31 02:35:25;;;;;;;5.53;2.60;;;;;;;;;;2114503;28;20077;-42
2022/10/31 02:36:27;;;;;;;7.47;2.08;;;;;;;;;;2108409;28;20036;-42
2022/10/31 02:37:28;;;;;;;;;;;;;;;;;;2106386;28;20066;-42
2022/10/31 02:38:38;;;;;;;8.30;2.92;;;;;;;;;;2105341;28;19920;-45
2022/10/31 02:39:44;;;;;;;10.95;2.70;;;;;;;;;;2105074;28;20386;-45
2022/10/31 02:40:49;;;;;;;4.25;2.35;;;;;;;;;;2105063;28;20052;-45
2022/10/31 02:41:52;;;;;;;5.30;2.53;;;;;;;;;;2108580;28;20091;-45
2022/10/31 02:42:58;;;;;;;7.38;2.47;;;;;;;;;;2114507;28;20061;-42
2022/10/31 02:44:05;;;;;;;9.98;2.60;;;;;;;;;;2114285;28;20523;-42
2022/10/31 02:45:08;;;;;;;8.27;2.65;;;;;;;;;;2114191;28;20382;-42
2022/10/31 02:46:14;;;;;;;7.32;2.47;;;;;;;;;;2114332;28;20048;-42
2022/10/31 02:47:16;;;;;;;5.47;2.08;;;;;;;;;;2114254;28;20083;-42
2022/10/31 02:48:19;;;;;;;8.05;2.80;;;;;;;;;;2114181;28;20051;-42
2022/10/31 02:49:24;;;;;;;6.20;2.30;;;;;;;;;;2114377;28;20040;-42
2022/10/31 02:50:27;;;;;;;7.72;2.60;;;;;;;;;;2114194;28;20043;-42
2022/10/31 02:51:28;;;;;;;6.30;2.15;;;;;;;;;;2114141;28;20059;-42
2022/10/31 02:52:30;;;;;;;4.57;2.37;;;;;;;;;;2114186;28;20047;-42
2022/10/31 02:53:32;;;;;;;5.55;2.20;;;;;;;;;;2114197;28;20047;-42
2022/10/31 02:54:33;;;;;;;5.80;2.65;;;;;;;;;;2114011;28;20051;-42
2022/10/31 02:55:53;;;;;;;6.43;2.40;;;;;;;;;;2105874;28;20040;-42
2022/10/31 02:56:57;;;;;;;5.43;2.40;;;;;;;;;;2105726;28;20051;-42
2022/10/31 02:58:00;;;;;;;10.25;2.58;;;;;;;;;;2105901;28;20098;-42
2022/10/31 02:59:04;;;;;;;7.70;2.38;;;;;;;;;;2105598;28;20048;-42
2022/10/31 03:00:06;;;;;;;4.00;1.90;;;;;;;;;;2105856;28;20059;-42
2022/10/31 03:01:18;;;;;;;4.35;2.05;;;;;;;;;;2105723;28;20051;-43
2022/10/31 03:02:30;;;;;;;3.78;1.90;;;;;;;;;;2106015;28;20489;-44
2022/10/31 03:03:34;;;;;;;8.52;2.70;;;;;;;;;;2105809;28;20044;-45
2022/10/31 03:04:49;;;;;;;5.18;2.35;;;;;;;;;;2105697;28;20040;-44
2022/10/31 03:05:54;;;;;;;4.75;2.10;;;;;;;;;;2105694;28;20051;-45
2022/10/31 03:07:00;;;;;;;5.22;2.33;;;;;;;;;;2106019;28;20055;-44
2022/10/31 03:08:05;;;;;;;6.60;2.67;;;;;;;;;;2105787;28;20044;-45
2022/10/31 03:09:09;;;;;;;7.35;2.20;;;;;;;;;;2105758;28;20493;-45
2022/10/31 03:10:15;;;;;;;3.80;2.30;;;;;;;;;;2105766;28;20097;-44
2022/10/31 03:11:18;;;;;;;9.20;2.80;;;;;;;;;;2105627;28;20409;-44
2022/10/31 03:12:25;;;;;;;6.43;2.35;;;;;;;;;;2105872;28;20056;-42
2022/10/31 03:13:31;;;;;;;7.00;2.22;;;;;;;;;;2105859;28;20044;-41
2022/10/31 03:14:37;;;;;;;8.10;2.50;;;;;;;;;;2105729;28;20047;-42
2022/10/31 03:15:40;;;;;;;6.60;2.25;;;;;;;;;;2105823;28;20044;-42
2022/10/31 03:16:46;;;;;;;6.75;2.50;;;;;;;;;;2105630;28;20055;-42
2022/10/31 03:17:52;;;;;;;9.93;3.00;;;;;;;;;;2105774;28;20469;-42
2022/10/31 03:18:55;;;;;;;6.18;2.60;;;;;;;;;;2105777;28;20048;-42
2022/10/31 03:19:58;;;;;;;8.07;2.53;;;;;;;;;;2105599;28;20044;-42
2022/10/31 03:21:01;;;;;;;8.05;2.50;;;;;;;;;;2105782;28;20063;-42
2022/10/31 03:22:05;;;;;;;4.63;2.20;;;;;;;;;;2105608;28;20083;-42
2022/10/31 03:23:08;;;;;;;7.80;2.78;;;;;;;;;;2106158;28;20047;-45
2022/10/31 03:24:09;;;;;;;6.15;2.65;;;;;;;;;;2105608;28;20066;-46
2022/10/31 03:25:11;;;;;;;7.47;2.25;;;;;;;;;;2105799;28;20044;-45
2022/10/31 03:26:13;;;;;;;6.57;2.50;;;;;;;;;;2105535;28;20056;-44
2022/10/31 03:27:14;;;;;;;;;;;;;;;;;;2106239;28;20063;-44
2022/10/31 03:28:17;;;;;;;6.10;2.90;;;;;;;;;;2105555;28;19920;-44
2022/10/31 03:29:25;;;;;;;8.25;2.20;;;;;;;;;;2105723;28;20113;-45
2022/10/31 03:30:26;;;;;;;4.80;1.80;;;;;;;;;;2105620;28;20052;-44
2022/10/31 03:31:29;;;;;;;6.93;2.57;;;;;;;;;;2105697;28;20515;-45
2022/10/31 03:32:32;;;;;;;7.53;2.47;;;;;;;;;;2105549;28;20401;-44
2022/10/31 03:33:38;;;;;;;6.65;2.10;;;;;;;;;;2105714;28;20044;-45
2022/10/31 03:34:40;;;;;;;5.70;2.10;;;;;;;;;;2105607;28;20044;-45
2022/10/31 03:35:41;;;;;;;;;;;;;;;;;;2106028;28;20037;-45
2022/10/31 03:36:42;;;;;;;6.00;2.00;;;;;;;;;;2105628;28;19924;-45
2022/10/31 03:37:43;;;;;;;5.07;2.20;;;;;;;;;;2106996;28;20036;-45
2022/10/31 03:38:45;;;;;;;4.40;2.10;;;;;;;;;;2107139;28;20048;-44
2022/10/31 03:39:48;;;;;;;7.28;2.55;;;;;;;;;;2106850;28;20369;-44
2022/10/31 03:40:51;;;;;;;5.70;2.20;;;;;;;;;;2107020;28;20048;-44
2022/10/31 03:41:55;;;;;;;5.43;2.20;;;;;;;;;;2107019;28;20044;-46
2022/10/31 03:42:57;;;;;;;7.50;2.00;;;;;;;;;;2107053;28;20051;-44
2022/10/31 03:44:01;;;;;;;5.95;1.85;;;;;;;;;;2107027;28;20055;-46
2022/10/31 03:45:04;;;;;;;7.35;1.90;;;;;;;;;;2107071;28;20209;-46
2022/10/31 03:46:06;;;;;;;8.95;1.90;;;;;;;;;;2106972;28;20105;-45
2022/10/31 03:47:06;;;;;;;;;;;;;;;;;;2107490;28;20070;-44
2022/10/31 03:48:08;;;;;;;5.38;2.17;;;;;;;;;;2107062;28;20368;-45
2022/10/31 03:49:09;;;;;;;9.10;2.00;;;;;;;;;;2106968;28;20481;-44
2022/10/31 03:50:12;;;;;;;6.68;2.40;;;;;;;;;;2107173;28;20044;-45
2022/10/31 03:51:15;;;;;;;6.18;2.17;;;;;;;;;;2106928;28;20405;-44
2022/10/31 03:52:19;;;;;;;4.78;1.70;;;;;;;;;;2107037;28;20048;-45
2022/10/31 03:53:22;;;;;;;3.88;1.65;;;;;;;;;;2106927;28;20068;-42
2022/10/31 03:54:25;;;;;;;3.60;1.85;;;;;;;;;;2107034;28;20052;-42
2022/10/31 03:55:30;;;;;;;3.63;2.03;;;;;;;;;;2107047;28;20447;-44
2022/10/31 03:56:34;;;;;;;5.57;2.38;;;;;;;;;;2107046;28;20056;-42
2022/10/31 03:57:37;;;;;;;6.47;2.20;;;;;;;;;;2106878;28;20109;-42
2022/10/31 03:58:40;;;;;;;6.15;2.10;;;;;;;;;;2106993;28;20044;-42
2022/10/31 03:59:43;;;;;;;4.28;1.65;;;;;;;;;;2106936;28;20113;-42
2022/10/31 04:00:45;;;;;;;5.43;1.70;;;;;;;;;;2106884;28;20413;-42
2022/10/31 04:01:48;;;;;;;3.55;1.60;;;;;;;;;;2107059;28;20054;-44
2022/10/31 04:02:53;;;;;;;8.32;1.85;;;;;;;;;;2106995;28;20044;-46
2022/10/31 04:03:56;;;;;;;2.72;1.70;;;;;;;;;;2106799;28;20052;-44
2022/10/31 04:04:57;;;;;;;6.07;1.58;;;;;;;;;;2106755;28;20477;-45
2022/10/31 04:05:59;;;;;;;4.07;1.85;;;;;;;;;;2106901;28;20063;-44
2022/10/31 04:07:01;;;;;;;5.95;1.83;;;;;;;;;;2106822;28;20048;-45
2022/10/31 04:08:02;;;;;;;;;;;;;;;;;;2107380;28;20051;-45
2022/10/31 04:09:05;;;;;;;4.18;1.83;;;;;;;;;;2107001;28;19911;-45
2022/10/31 04:10:07;;;;;;;3.58;1.70;;;;;;;;;;2110266;28;20492;-45
2022/10/31 04:11:09;;;;;;;2.65;1.88;;;;;;;;;;2115356;28;20051;-42
2022/10/31 04:12:14;;;;;;;4.22;2.08;;;;;;;;;;2115357;28;20050;-42
2022/10/31 04:13:17;;;;;;;4.03;1.73;;;;;;;;;;2115290;28;20391;-42
2022/10/31 04:14:24;;;;;;;5.82;2.00;;;;;;;;;;2115293;28;20052;-42
2022/10/31 04:15:26;;;;;;;3.53;1.67;;;;;;;;;;2115247;28;20048;-42
2022/10/31 04:16:27;;;;;;;7.00;1.50;;;;;;;;;;2115184;28;20407;-42
2022/10/31 04:17:31;;;;;;;3.67;1.73;;;;;;;;;;2115248;28;20048;-42
2022/10/31 04:18:32;;;;;;;3.80;1.50;;;;;;;;;;2115553;28;20168;-44
2022/10/31 04:19:34;;;;;;;4.47;1.50;;;;;;;;;;2115146;28;20081;-45
2022/10/31 04:20:36;;;;;;;4.40;1.45;;;;;;;;;;2115362;28;20471;-45
2022/10/31 04:21:37;;;;;;;4.63;1.67;;;;;;;;;;2115175;28;20039;-44
2022/10/31 04:22:38;;;;;;;7.03;1.47;;;;;;;;;;2115423;28;20035;-42
2022/10/31 04:23:39;;;;;;;5.13;1.70;;;;;;;;;;2115470;28;20280;-44
2022/10/31 04:24:41;;;;;;;2.93;1.20;;;;;;;;;;2115124;28;20545;-45
2022/10/31 04:25:41;;;;;;;3.08;1.35;;;;;;;;;;2115286;28;20047;-45
2022/10/31 04:26:43;;;;;;;8.05;1.83;;;;;;;;;;2115180;28;20126;-44
2022/10/31 04:27:43;;;;;;;2.40;1.30;;;;;;;;;;2115256;28;20040;-44
2022/10/31 04:28:44;;;;;;;2.33;1.23;;;;;;;;;;2115184;28;20044;-44
2022/10/31 04:29:45;;;;;;;4.07;1.02;;;;;;;;;;2115419;28;20043;-42
2022/10/31 04:30:51;;;;;;;3.30;0.93;;;;;;;;;;2115220;28;20070;-42
2022/10/31 04:31:52;;;;;;;5.00;1.20;;;;;;;;;;2115427;28;20040;-44
2022/10/31 04:32:53;;;;;;;2.53;1.10;;;;;;;;;;2115493;28;20083;-42
2022/10/31 04:33:54;;;;;;;2.13;1.00;;;;;;;;;;2115132;28;20051;-42
2022/10/31 04:34:56;;;;;;;3.30;1.10;;;;;;;;;;2115086;28;20570;-42
2022/10/31 04:35:57;;;;;;;4.25;1.25;;;;;;;;;;2115092;28;20051;-42
2022/10/31 04:36:58;;;;;;;2.67;0.90;;;;;;;;;;2116014;28;20052;-42
2022/10/31 04:37:59;;;;;;;4.18;1.00;;;;;;;;;;2115178;28;20047;-42
2022/10/31 04:39:00;;;;;;;4.20;1.00;;;;;;;;;;2115214;28;20484;-42
2022/10/31 04:40:01;;;;;;;2.13;1.08;;;;;;;;;;2116084;28;20051;-42
2022/10/31 04:41:02;;;;;;;1.10;0.77;;;;;;;;;;2115132;28;20449;-42
2022/10/31 04:42:03;;;;;;;2.60;0.73;;;;;;;;;;2115611;28;20054;-42
2022/10/31 04:43:04;;;;;;;5.13;1.17;;;;;;;;;;2115703;28;20477;-44
2022/10/31 04:44:05;;;;;;;3.03;1.00;;;;;;;;;;2115233;28;20055;-42
2022/10/31 04:45:07;;;;;;;2.20;0.80;;;;;;;;;;2115255;28;20131;-42
2022/10/31 04:46:08;;;;;;;4.20;0.68;;;;;;;;;;2115295;28;20043;-46
2022/10/31 04:47:09;;;;;;;4.30;0.90;;;;;;;;;;2114200;28;20039;-44
2022/10/31 04:48:10;;;;;;;6.50;1.05;;;;;;;;;;2106864;28;20048;-45
2022/10/31 04:49:11;;;;;;;3.07;0.90;;;;;;;;;;2106835;28;20396;-42
2022/10/31 04:50:12;;;;;;;0.80;0.68;;;;;;;;;;2106664;28;20121;-42
2022/10/31 04:51:13;;;;;;;1.30;0.80;;;;;;;;;;2106890;28;20055;-42
2022/10/31 04:52:14;;;;;;;1.48;0.73;;;;;;;;;;2106758;28;20558;-44
2022/10/31 04:53:15;;;;;;;1.10;0.55;;;;;;;;;;2106924;28;20134;-45
2022/10/31 04:54:16;;;;;;;4.15;0.80;;;;;;;;;;2106717;28;20052;-42
2022/10/31 04:55:18;;;;;;;1.30;0.57;;;;;;;;;;2106716;28;20071;-42
2022/10/31 04:56:19;;;;;;;4.50;1.05;;;;;;;;;;2106459;28;20048;-42
2022/10/31 04:57:20;;;;;;;2.70;0.90;;;;;;;;;;2106627;28;20048;-42
2022/10/31 04:58:21;;;;;;;11.52;1.88;;;;;;;;;;2106963;28;20051;-42
2022/10/31 04:59:22;;;;;;;5.00;0.80;;;;;;;;;;2106772;28;20488;-47
2022/10/31 05:00:23;;;;;;;1.05;0.80;;;;;;;;;;2106929;28;20105;-42
2022/10/31 05:01:24;;;;;;;2.40;0.80;;;;;;;;;;2106771;28;20048;-45
2022/10/31 05:02:25;;;;;;;4.20;0.95;;;;;;;;;;2107057;28;20433;-41
2022/10/31 05:03:26;;;;;;;4.27;0.90;;;;;;;;;;2107266;28;20041;-42
2022/10/31 05:04:27;;;;;;;4.05;0.80;;;;;;;;;;2106850;28;20048;-45
2022/10/31 05:05:31;;;;;;;2.50;0.60;;;;;;;;;;2106693;28;20048;-44
2022/10/31 05:06:31;;;;;;;1.80;0.77;;;;;;;;;;2106720;28;20052;-44
2022/10/31 05:07:33;;;;;;;2.13;0.70;;;;;;;;;;2106653;28;20048;-45
2022/10/31 05:08:33;;;;;;;3.80;0.85;;;;;;;;;;2106398;28;20056;-46
2022/10/31 05:09:35;;;;;;;1.90;0.70;;;;;;;;;;2106845;28;20051;-42
2022/10/31 05:10:36;;;;;;;4.35;1.02;;;;;;;;;;2106436;28;20043;-41
2022/10/31 05:11:37;;;;;;;2.80;1.00;;;;;;;;;;2106834;28;20052;-45
2022/10/31 05:12:44;;;;;;;4.40;0.77;;;;;;;;;;2107399;28;20101;-42
2022/10/31 05:13:46;;;;;;;2.03;0.73;;;;;;;;;;2106483;28;20052;-42
2022/10/31 05:14:46;;;;;;;3.33;1.00;;;;;;;;;;2106570;28;20048;-42
2022/10/31 05:15:49;;;;;;;3.15;0.75;;;;;;;;;;2106871;28;20044;-45
2022/10/31 05:16:50;;;;;;;2.80;0.80;;;;;;;;;;2106559;28;20105;-42
2022/10/31 05:17:51;;;;;;;5.32;0.93;;;;;;;;;;2107414;28;20082;-44
2022/10/31 05:18:52;;;;;;;2.03;0.90;;;;;;;;;;2106315;28;20086;-44
2022/10/31 05:19:53;;;;;;;4.35;0.90;;;;;;;;;;2106401;28;20098;-44
2022/10/31 05:20:55;;;;;;;3.78;0.95;;;;;;;;;;2106554;28;20046;-42
2022/10/31 05:21:56;;;;;;;3.80;0.90;;;;;;;;;;2106952;28;20047;-42
2022/10/31 05:22:57;;;;;;;2.95;0.80;;;;;;;;;;2106559;28;20048;-42
2022/10/31 05:23:58;;;;;;;1.77;0.80;;;;;;;;;;2106570;28;20451;-45
2022/10/31 05:24:59;;;;;;;2.45;0.80;;;;;;;;;;2106731;28;20318;-45
2022/10/31 05:26:00;;;;;;;2.22;0.60;;;;;;;;;;2106821;28;20173;-45
2022/10/31 05:27:01;;;;;;;2.88;0.70;;;;;;;;;;2106717;28;20058;-44
2022/10/31 05:28:03;;;;;;;2.57;0.90;;;;;;;;;;2106677;28;20070;-44
2022/10/31 05:29:04;;;;;;;;;;;;;;;;;;2106926;28;20560;-45
2022/10/31 05:30:06;;;;;;;3.13;0.82;;;;;;;;;;2106297;28;20015;-45
2022/10/31 05:31:06;;;;;;;2.47;0.90;;;;;;;;;;2106567;28;20059;-44
2022/10/31 05:32:08;;;;;;;2.15;0.70;;;;;;;;;;2107510;28;20052;-44
2022/10/31 05:33:08;;;;;;;2.60;1.05;;;;;;;;;;2106932;28;20048;-45
2022/10/31 05:34:10;;;;;;;2.57;0.63;;;;;;;;;;2106443;28;20052;-42
2022/10/31 05:35:12;;;;;;;1.88;0.93;;;;;;;;;;2107114;28;20485;-45
2022/10/31 05:36:13;;;;;;;1.27;0.60;;;;;;;;;;2106928;28;20073;-45
2022/10/31 05:37:14;;;;;;;2.28;0.70;;;;;;;;;;2106369;28;20044;-44
2022/10/31 05:38:15;;;;;;;1.65;0.70;;;;;;;;;;2106439;28;20052;-42
2022/10/31 05:39:16;;;;;;;3.08;0.60;;;;;;;;;;2106208;28;20094;-42
2022/10/31 05:40:18;;;;;;;3.87;0.77;;;;;;;;;;2106783;28;20086;-42
2022/10/31 05:41:19;;;;;;;3.65;0.98;;;;;;;;;;2106338;28;20044;-44
2022/10/31 05:42:20;;;;;;;2.38;0.50;;;;;;;;;;2107375;28;20048;-42
2022/10/31 05:43:21;;;;;;;4.15;0.75;;;;;;;;;;2106742;28;20485;-45
2022/10/31 05:44:22;;;;;;;2.08;0.77;;;;;;;;;;2107147;28;20055;-42
2022/10/31 05:45:23;;;;;;;2.88;0.80;;;;;;;;;;2106781;28;20060;-42
2022/10/31 05:46:24;;;;;;;2.40;0.70;;;;;;;;;;2106577;28;20062;-44
2022/10/31 05:47:25;;;;;;;3.45;0.88;;;;;;;;;;2106420;28;20047;-42
2022/10/31 05:48:28;;;;;;;2.33;0.93;;;;;;;;;;2106640;28;20404;-42
2022/10/31 05:49:28;;;;;;;1.77;0.80;;;;;;;;;;2106586;28;20401;-42
2022/10/31 05:50:30;;;;;;;1.63;0.70;;;;;;;;;;2106169;28;20044;-42
2022/10/31 05:51:32;;;;;;;3.17;1.10;;;;;;;;;;2106401;28;20263;-42
2022/10/31 05:52:33;;;;;;;2.28;0.77;;;;;;;;;;2106550;28;20481;-42
2022/10/31 05:53:34;;;;;;;3.55;1.10;;;;;;;;;;2106243;28;20051;-42
2022/10/31 05:54:35;;;;;;;6.57;0.90;;;;;;;;;;2106383;28;20039;-44
2022/10/31 05:55:36;;;;;;;2.35;1.20;;;;;;;;;;2106724;28;20074;-46
2022/10/31 05:56:37;;;;;;;3.47;0.77;;;;;;;;;;2114512;28;20048;-44
2022/10/31 05:57:38;;;;;;;2.65;0.73;;;;;;;;;;2114953;28;20048;-44
2022/10/31 05:58:39;;;;;;;1.58;0.90;;;;;;;;;;2114632;28;20056;-44
2022/10/31 05:59:40;;;;;;;5.47;0.90;;;;;;;;;;2115316;28;20061;-44
2022/10/31 06:00:41;;;;;;;1.70;0.90;;;;;;;;;;2113500;28;20135;-44
2022/10/31 06:01:42;;;;;;;2.45;0.98;;;;;;;;;;2114639;28;20051;-42
2022/10/31 06:02:43;;;;;;;3.03;0.80;;;;;;;;;;2115019;28;20047;-41
2022/10/31 06:03:44;;;;;;;1.35;0.90;;;;;;;;;;2114503;28;20043;-41
2022/10/31 06:04:45;;;;;;;4.00;0.77;;;;;;;;;;2114302;28;20273;-41
2022/10/31 06:05:47;;;;;;;2.50;0.80;;;;;;;;;;2114697;28;20047;-44
2022/10/31 06:06:56;;;;;;;1.85;0.90;;;;;;;;;;2114480;28;20051;-45
2022/10/31 06:07:57;;;;;;;2.58;0.70;;;;;;;;;;2115534;28;20070;-44
2022/10/31 06:08:59;;;;;;;2.10;0.80;;;;;;;;;;2114767;28;20856;-41
2022/10/31 06:10:00;;;;;;;2.45;0.90;;;;;;;;;;2114471;28;20039;-41
2022/10/31 06:11:01;;;;;;;3.47;0.80;;;;;;;;;;2115060;28;20135;-41
2022/10/31 06:12:02;;;;;;;5.60;1.00;;;;;;;;;;2114577;28;20058;-41
2022/10/31 06:13:05;;;;;;;2.85;0.93;;;;;;;;;;2114698;28;20617;-41
2022/10/31 06:14:06;;;;;;;4.45;1.30;;;;;;;;;;2114792;28;20385;-43
2022/10/31 06:15:08;;;;;;;2.53;1.30;;;;;;;;;;2114664;28;20051;-42
2022/10/31 06:16:09;;;;;;;3.45;1.33;;;;;;;;;;2114946;28;20047;-45